sensor_id;sensor_type;location;lat;lon;timestamp;P1;durP1;ratioP1;P2;durP2;ratioP2
1777;SDS011;886;50.082;8.222;2022-12-29T00:01:09;3.07;;;2.77;;
1777;SDS011;886;50.082;8.222;2022-12-29T00:03:39;6.07;;;2.73;;
1777;SDS011;886;50.082;8.222;2022-12-29T00:06:06;4.03;;;3.13;;
1777;SDS011;886;50.082;8.222;2022-12-29T00:08:38;3.77;;;3.07;;
1777;SDS011;886;50.082;8.222;2022-12-29T00:11:08;2.50;;;2.30;;
1777;SDS011;886;50.082;8.222;2022-12-29T00:13:40;3.83;;;2.70;;
1777;SDS011;886;50.082;8.222;2022-12-29T00:16:26;2.93;;;2.40;;
1777;SDS011;886;50.082;8.222;2022-12-29T00:18:55;3.00;;;2.80;;
1777;SDS011;886;50.082;8.222;2022-12-29T00:21:22;6.53;;;2.60;;
1777;SDS011;886;50.082;8.222;2022-12-29T00:24:14;3.50;;;2.60;;
1777;SDS011;886;50.082;8.222;2022-12-29T00:26:56;2.67;;;2.43;;
1777;SDS011;886;50.082;8.222;2022-12-29T00:30:01;3.00;;;2.77;;
1777;SDS011;886;50.082;8.222;2022-12-29T00:32:50;3.73;;;2.83;;
1777;SDS011;886;50.082;8.222;2022-12-29T00:35:39;3.97;;;2.90;;
1777;SDS011;886;50.082;8.222;2022-12-29T00:38:12;2.53;;;2.33;;
1777;SDS011;886;50.082;8.222;2022-12-29T00:41:12;3.43;;;2.77;;
1777;SDS011;886;50.082;8.222;2022-12-29T00:44:12;2.80;;;2.60;;
1777;SDS011;886;50.082;8.222;2022-12-29T00:46:41;3.00;;;2.70;;
1777;SDS011;886;50.082;8.222;2022-12-29T00:49:10;2.90;;;2.70;;
1777;SDS011;886;50.082;8.222;2022-12-29T00:51:58;2.50;;;2.40;;
1777;SDS011;886;50.082;8.222;2022-12-29T00:54:27;2.90;;;2.70;;
1777;SDS011;886;50.082;8.222;2022-12-29T00:56:56;2.80;;;2.37;;
1777;SDS011;886;50.082;8.222;2022-12-29T00:59:28;4.23;;;3.10;;
1777;SDS011;886;50.082;8.222;2022-12-29T01:01:56;5.10;;;2.83;;
1777;SDS011;886;50.082;8.222;2022-12-29T01:04:24;2.37;;;2.17;;
1777;SDS011;886;50.082;8.222;2022-12-29T01:06:52;2.83;;;2.60;;
1777;SDS011;886;50.082;8.222;2022-12-29T01:09:20;3.37;;;2.70;;
1777;SDS011;886;50.082;8.222;2022-12-29T01:12:11;3.97;;;2.47;;
1777;SDS011;886;50.082;8.222;2022-12-29T01:14:40;5.57;;;2.70;;
1777;SDS011;886;50.082;8.222;2022-12-29T01:17:16;2.40;;;2.30;;
1777;SDS011;886;50.082;8.222;2022-12-29T01:19:44;3.03;;;2.73;;
1777;SDS011;886;50.082;8.222;2022-12-29T01:22:16;2.40;;;2.20;;
1777;SDS011;886;50.082;8.222;2022-12-29T01:24:44;2.80;;;2.60;;
1777;SDS011;886;50.082;8.222;2022-12-29T01:27:11;3.37;;;2.77;;
1777;SDS011;886;50.082;8.222;2022-12-29T01:29:38;4.20;;;3.10;;
1777;SDS011;886;50.082;8.222;2022-12-29T01:32:06;2.87;;;2.67;;
1777;SDS011;886;50.082;8.222;2022-12-29T01:34:36;4.60;;;2.60;;
1777;SDS011;886;50.082;8.222;2022-12-29T01:37:16;3.70;;;2.80;;
1777;SDS011;886;50.082;8.222;2022-12-29T01:39:43;2.80;;;2.30;;
1777;SDS011;886;50.082;8.222;2022-12-29T01:42:14;2.20;;;2.10;;
1777;SDS011;886;50.082;8.222;2022-12-29T01:44:47;2.40;;;2.20;;
1777;SDS011;886;50.082;8.222;2022-12-29T01:47:34;2.80;;;2.33;;
1777;SDS011;886;50.082;8.222;2022-12-29T01:50:07;3.33;;;2.37;;
1777;SDS011;886;50.082;8.222;2022-12-29T01:52:38;2.40;;;2.07;;
1777;SDS011;886;50.082;8.222;2022-12-29T01:55:17;3.23;;;2.33;;
1777;SDS011;886;50.082;8.222;2022-12-29T01:57:46;2.93;;;2.23;;
1777;SDS011;886;50.082;8.222;2022-12-29T02:00:21;3.43;;;2.60;;
1777;SDS011;886;50.082;8.222;2022-12-29T02:02:52;2.47;;;2.30;;
1777;SDS011;886;50.082;8.222;2022-12-29T02:05:25;2.40;;;2.20;;
1777;SDS011;886;50.082;8.222;2022-12-29T02:07:59;6.37;;;2.77;;
1777;SDS011;886;50.082;8.222;2022-12-29T02:10:27;2.50;;;2.30;;
1777;SDS011;886;50.082;8.222;2022-12-29T02:13:02;2.30;;;2.10;;
1777;SDS011;886;50.082;8.222;2022-12-29T02:15:46;2.97;;;2.20;;
1777;SDS011;886;50.082;8.222;2022-12-29T02:18:28;5.00;;;2.03;;
1777;SDS011;886;50.082;8.222;2022-12-29T02:21:25;7.47;;;2.80;;
1777;SDS011;886;50.082;8.222;2022-12-29T02:24:30;2.80;;;2.60;;
1777;SDS011;886;50.082;8.222;2022-12-29T02:27:19;3.00;;;2.70;;
1777;SDS011;886;50.082;8.222;2022-12-29T02:30:15;2.70;;;2.50;;
1777;SDS011;886;50.082;8.222;2022-12-29T02:33:08;2.67;;;2.47;;
1777;SDS011;886;50.082;8.222;2022-12-29T02:36:01;2.30;;;2.20;;
1777;SDS011;886;50.082;8.222;2022-12-29T02:38:41;2.13;;;1.70;;
1777;SDS011;886;50.082;8.222;2022-12-29T02:41:19;2.50;;;2.30;;
1777;SDS011;886;50.082;8.222;2022-12-29T02:44:09;2.57;;;2.27;;
1777;SDS011;886;50.082;8.222;2022-12-29T02:46:52;3.30;;;2.33;;
1777;SDS011;886;50.082;8.222;2022-12-29T02:49:28;5.07;;;2.20;;
1777;SDS011;886;50.082;8.222;2022-12-29T02:52:00;2.53;;;2.40;;
1777;SDS011;886;50.082;8.222;2022-12-29T02:54:30;4.13;;;2.73;;
1777;SDS011;886;50.082;8.222;2022-12-29T02:57:15;3.20;;;1.67;;
1777;SDS011;886;50.082;8.222;2022-12-29T03:00:03;3.50;;;2.70;;
1777;SDS011;886;50.082;8.222;2022-12-29T03:02:49;2.60;;;2.40;;
1777;SDS011;886;50.082;8.222;2022-12-29T03:06:02;1.90;;;1.80;;
1777;SDS011;886;50.082;8.222;2022-12-29T03:08:52;2.13;;;1.93;;
1777;SDS011;886;50.082;8.222;2022-12-29T03:11:32;1.90;;;1.70;;
1777;SDS011;886;50.082;8.222;2022-12-29T03:14:32;2.20;;;2.00;;
1777;SDS011;886;50.082;8.222;2022-12-29T03:17:35;2.00;;;1.90;;
1777;SDS011;886;50.082;8.222;2022-12-29T03:20:14;2.47;;;1.63;;
1777;SDS011;886;50.082;8.222;2022-12-29T03:22:47;1.80;;;1.70;;
1777;SDS011;886;50.082;8.222;2022-12-29T03:25:16;1.80;;;1.50;;
1777;SDS011;886;50.082;8.222;2022-12-29T03:27:48;2.00;;;1.60;;
1777;SDS011;886;50.082;8.222;2022-12-29T03:30:21;2.00;;;1.90;;
1777;SDS011;886;50.082;8.222;2022-12-29T03:32:50;3.63;;;1.80;;
1777;SDS011;886;50.082;8.222;2022-12-29T03:35:22;4.00;;;1.90;;
1777;SDS011;886;50.082;8.222;2022-12-29T03:37:55;2.03;;;1.90;;
1777;SDS011;886;50.082;8.222;2022-12-29T03:40:26;3.93;;;2.37;;
1777;SDS011;886;50.082;8.222;2022-12-29T03:42:55;2.00;;;1.90;;
1777;SDS011;886;50.082;8.222;2022-12-29T03:45:24;1.97;;;1.87;;
1777;SDS011;886;50.082;8.222;2022-12-29T03:47:52;7.13;;;2.00;;
1777;SDS011;886;50.082;8.222;2022-12-29T03:50:24;2.73;;;1.67;;
1777;SDS011;886;50.082;8.222;2022-12-29T03:52:51;1.90;;;1.80;;
1777;SDS011;886;50.082;8.222;2022-12-29T03:55:21;2.57;;;1.90;;
1777;SDS011;886;50.082;8.222;2022-12-29T03:57:49;2.40;;;2.20;;
1777;SDS011;886;50.082;8.222;2022-12-29T04:00:16;1.83;;;1.73;;
1777;SDS011;886;50.082;8.222;2022-12-29T04:02:50;2.13;;;2.03;;
1777;SDS011;886;50.082;8.222;2022-12-29T04:05:19;1.83;;;1.73;;
1777;SDS011;886;50.082;8.222;2022-12-29T04:07:51;2.23;;;2.00;;
1777;SDS011;886;50.082;8.222;2022-12-29T04:10:24;2.90;;;2.70;;
1777;SDS011;886;50.082;8.222;2022-12-29T04:12:52;2.17;;;2.07;;
1777;SDS011;886;50.082;8.222;2022-12-29T04:15:25;2.90;;;2.00;;
1777;SDS011;886;50.082;8.222;2022-12-29T04:17:56;2.93;;;2.13;;
1777;SDS011;886;50.082;8.222;2022-12-29T04:20:23;2.60;;;2.40;;
1777;SDS011;886;50.082;8.222;2022-12-29T04:23:10;2.13;;;1.93;;
1777;SDS011;886;50.082;8.222;2022-12-29T04:25:37;3.50;;;2.33;;
1777;SDS011;886;50.082;8.222;2022-12-29T04:28:04;2.00;;;1.77;;
1777;SDS011;886;50.082;8.222;2022-12-29T04:30:33;2.67;;;2.23;;
1777;SDS011;886;50.082;8.222;2022-12-29T04:33:00;2.20;;;2.10;;
1777;SDS011;886;50.082;8.222;2022-12-29T04:35:27;3.60;;;2.00;;
1777;SDS011;886;50.082;8.222;2022-12-29T04:37:54;3.57;;;2.87;;
1777;SDS011;886;50.082;8.222;2022-12-29T04:40:22;3.97;;;2.43;;
1777;SDS011;886;50.082;8.222;2022-12-29T04:42:50;2.70;;;1.90;;
1777;SDS011;886;50.082;8.222;2022-12-29T04:45:17;2.17;;;2.00;;
1777;SDS011;886;50.082;8.222;2022-12-29T04:47:45;3.00;;;2.17;;
1777;SDS011;886;50.082;8.222;2022-12-29T04:50:12;2.20;;;2.10;;
1777;SDS011;886;50.082;8.222;2022-12-29T04:52:42;2.17;;;1.97;;
1777;SDS011;886;50.082;8.222;2022-12-29T04:55:15;2.70;;;2.50;;
1777;SDS011;886;50.082;8.222;2022-12-29T04:57:45;2.70;;;2.30;;
1777;SDS011;886;50.082;8.222;2022-12-29T05:00:15;1.83;;;1.73;;
1777;SDS011;886;50.082;8.222;2022-12-29T05:02:48;2.17;;;2.03;;
1777;SDS011;886;50.082;8.222;2022-12-29T05:05:16;2.23;;;1.60;;
1777;SDS011;886;50.082;8.222;2022-12-29T05:07:53;1.73;;;1.63;;
1777;SDS011;886;50.082;8.222;2022-12-29T05:10:20;1.93;;;1.83;;
1777;SDS011;886;50.082;8.222;2022-12-29T05:12:51;6.60;;;2.17;;
1777;SDS011;886;50.082;8.222;2022-12-29T05:15:18;3.13;;;2.83;;
1777;SDS011;886;50.082;8.222;2022-12-29T05:17:51;2.43;;;1.97;;
1777;SDS011;886;50.082;8.222;2022-12-29T05:20:22;5.60;;;1.83;;
1777;SDS011;886;50.082;8.222;2022-12-29T05:22:52;1.60;;;1.50;;
1777;SDS011;886;50.082;8.222;2022-12-29T05:25:22;2.20;;;2.00;;
1777;SDS011;886;50.082;8.222;2022-12-29T05:27:49;2.13;;;1.83;;
1777;SDS011;886;50.082;8.222;2022-12-29T05:30:18;1.93;;;1.83;;
1777;SDS011;886;50.082;8.222;2022-12-29T05:32:45;2.57;;;1.90;;
1777;SDS011;886;50.082;8.222;2022-12-29T05:35:12;2.00;;;1.90;;
1777;SDS011;886;50.082;8.222;2022-12-29T05:37:44;3.93;;;1.70;;
1777;SDS011;886;50.082;8.222;2022-12-29T05:40:15;2.10;;;1.90;;
1777;SDS011;886;50.082;8.222;2022-12-29T05:42:45;3.27;;;2.20;;
1777;SDS011;886;50.082;8.222;2022-12-29T05:45:25;2.93;;;2.00;;
1777;SDS011;886;50.082;8.222;2022-12-29T05:47:52;2.80;;;1.80;;
1777;SDS011;886;50.082;8.222;2022-12-29T05:50:19;2.93;;;1.70;;
1777;SDS011;886;50.082;8.222;2022-12-29T05:52:46;2.33;;;1.67;;
1777;SDS011;886;50.082;8.222;2022-12-29T05:55:13;2.07;;;1.90;;
1777;SDS011;886;50.082;8.222;2022-12-29T05:57:44;1.93;;;1.83;;
1777;SDS011;886;50.082;8.222;2022-12-29T06:00:11;3.43;;;1.80;;
1777;SDS011;886;50.082;8.222;2022-12-29T06:02:41;2.53;;;2.17;;
1777;SDS011;886;50.082;8.222;2022-12-29T06:05:12;4.60;;;3.13;;
1777;SDS011;886;50.082;8.222;2022-12-29T06:07:40;2.20;;;2.07;;
1777;SDS011;886;50.082;8.222;2022-12-29T06:10:11;2.57;;;1.90;;
1777;SDS011;886;50.082;8.222;2022-12-29T06:12:41;3.87;;;1.93;;
1777;SDS011;886;50.082;8.222;2022-12-29T06:15:09;2.03;;;1.83;;
1777;SDS011;886;50.082;8.222;2022-12-29T06:17:37;1.80;;;1.70;;
1777;SDS011;886;50.082;8.222;2022-12-29T06:20:07;1.93;;;1.73;;
1777;SDS011;886;50.082;8.222;2022-12-29T06:22:36;2.20;;;2.10;;
1777;SDS011;886;50.082;8.222;2022-12-29T06:25:03;2.17;;;1.97;;
1777;SDS011;886;50.082;8.222;2022-12-29T06:27:32;3.60;;;2.10;;
1777;SDS011;886;50.082;8.222;2022-12-29T06:29:59;3.40;;;2.07;;
1777;SDS011;886;50.082;8.222;2022-12-29T06:32:35;2.40;;;2.13;;
1777;SDS011;886;50.082;8.222;2022-12-29T06:35:02;2.90;;;2.37;;
1777;SDS011;886;50.082;8.222;2022-12-29T06:37:35;2.30;;;2.13;;
1777;SDS011;886;50.082;8.222;2022-12-29T06:40:03;3.60;;;2.03;;
1777;SDS011;886;50.082;8.222;2022-12-29T06:42:31;2.43;;;2.23;;
1777;SDS011;886;50.082;8.222;2022-12-29T06:45:01;2.50;;;2.30;;
1777;SDS011;886;50.082;8.222;2022-12-29T06:47:28;3.20;;;2.00;;
1777;SDS011;886;50.082;8.222;2022-12-29T06:49:56;2.23;;;2.03;;
1777;SDS011;886;50.082;8.222;2022-12-29T06:52:24;2.23;;;2.13;;
1777;SDS011;886;50.082;8.222;2022-12-29T06:54:53;2.27;;;2.07;;
1777;SDS011;886;50.082;8.222;2022-12-29T06:57:20;5.53;;;2.13;;
1777;SDS011;886;50.082;8.222;2022-12-29T06:59:48;2.30;;;1.60;;
1777;SDS011;886;50.082;8.222;2022-12-29T07:02:15;6.33;;;1.90;;
1777;SDS011;886;50.082;8.222;2022-12-29T07:04:44;1.73;;;1.57;;
1777;SDS011;886;50.082;8.222;2022-12-29T07:07:11;1.67;;;1.57;;
1777;SDS011;886;50.082;8.222;2022-12-29T07:09:40;3.53;;;2.13;;
1777;SDS011;886;50.082;8.222;2022-12-29T07:12:08;5.27;;;1.80;;
1777;SDS011;886;50.082;8.222;2022-12-29T07:14:35;2.03;;;1.83;;
1777;SDS011;886;50.082;8.222;2022-12-29T07:17:11;1.60;;;1.50;;
1777;SDS011;886;50.082;8.222;2022-12-29T07:19:39;2.30;;;2.10;;
1777;SDS011;886;50.082;8.222;2022-12-29T07:22:12;2.50;;;2.30;;
1777;SDS011;886;50.082;8.222;2022-12-29T07:24:40;2.57;;;2.37;;
1777;SDS011;886;50.082;8.222;2022-12-29T07:27:13;2.33;;;2.20;;
1777;SDS011;886;50.082;8.222;2022-12-29T07:29:41;2.30;;;2.10;;
1777;SDS011;886;50.082;8.222;2022-12-29T07:32:10;2.30;;;2.10;;
1777;SDS011;886;50.082;8.222;2022-12-29T07:34:42;4.90;;;3.70;;
1777;SDS011;886;50.082;8.222;2022-12-29T07:37:11;5.33;;;4.23;;
1777;SDS011;886;50.082;8.222;2022-12-29T07:39:44;6.07;;;2.53;;
1777;SDS011;886;50.082;8.222;2022-12-29T07:42:17;3.43;;;2.60;;
1777;SDS011;886;50.082;8.222;2022-12-29T07:44:44;2.90;;;2.70;;
1777;SDS011;886;50.082;8.222;2022-12-29T07:47:15;3.67;;;2.13;;
1777;SDS011;886;50.082;8.222;2022-12-29T07:49:45;2.33;;;2.10;;
1777;SDS011;886;50.082;8.222;2022-12-29T07:52:16;2.80;;;2.20;;
1777;SDS011;886;50.082;8.222;2022-12-29T07:54:45;2.20;;;2.00;;
1777;SDS011;886;50.082;8.222;2022-12-29T07:57:12;2.70;;;2.50;;
1777;SDS011;886;50.082;8.222;2022-12-29T07:59:40;2.90;;;2.10;;
1777;SDS011;886;50.082;8.222;2022-12-29T08:02:08;3.90;;;2.60;;
1777;SDS011;886;50.082;8.222;2022-12-29T08:04:37;6.70;;;2.50;;
1777;SDS011;886;50.082;8.222;2022-12-29T08:07:08;6.03;;;2.80;;
1777;SDS011;886;50.082;8.222;2022-12-29T08:09:42;3.07;;;2.67;;
1777;SDS011;886;50.082;8.222;2022-12-29T08:12:14;4.97;;;2.07;;
1777;SDS011;886;50.082;8.222;2022-12-29T08:14:44;2.80;;;2.60;;
1777;SDS011;886;50.082;8.222;2022-12-29T08:17:14;3.10;;;2.57;;
1777;SDS011;886;50.082;8.222;2022-12-29T08:19:41;3.23;;;2.27;;
1777;SDS011;886;50.082;8.222;2022-12-29T08:22:08;2.60;;;2.40;;
1777;SDS011;886;50.082;8.222;2022-12-29T08:24:36;2.47;;;2.27;;
1777;SDS011;886;50.082;8.222;2022-12-29T08:27:03;2.57;;;2.47;;
1777;SDS011;886;50.082;8.222;2022-12-29T08:29:46;6.33;;;2.70;;
1777;SDS011;886;50.082;8.222;2022-12-29T08:32:14;2.50;;;2.30;;
1777;SDS011;886;50.082;8.222;2022-12-29T08:34:42;2.87;;;2.63;;
1777;SDS011;886;50.082;8.222;2022-12-29T08:37:09;3.90;;;2.60;;
1777;SDS011;886;50.082;8.222;2022-12-29T08:39:36;5.10;;;2.57;;
1777;SDS011;886;50.082;8.222;2022-12-29T08:42:03;2.83;;;2.63;;
1777;SDS011;886;50.082;8.222;2022-12-29T08:44:30;2.90;;;2.70;;
1777;SDS011;886;50.082;8.222;2022-12-29T08:47:02;5.87;;;3.20;;
1777;SDS011;886;50.082;8.222;2022-12-29T08:49:32;4.20;;;2.93;;
1777;SDS011;886;50.082;8.222;2022-12-29T08:51:59;3.73;;;2.90;;
1777;SDS011;886;50.082;8.222;2022-12-29T08:54:27;3.10;;;2.87;;
1777;SDS011;886;50.082;8.222;2022-12-29T08:56:54;3.97;;;2.53;;
1777;SDS011;886;50.082;8.222;2022-12-29T08:59:27;5.70;;;3.00;;
1777;SDS011;886;50.082;8.222;2022-12-29T09:02:05;4.43;;;2.77;;
1777;SDS011;886;50.082;8.222;2022-12-29T09:04:32;3.83;;;2.83;;
1777;SDS011;886;50.082;8.222;2022-12-29T09:07:00;3.20;;;2.90;;
1777;SDS011;886;50.082;8.222;2022-12-29T09:09:30;3.10;;;2.90;;
1777;SDS011;886;50.082;8.222;2022-12-29T09:11:59;3.80;;;3.00;;
1777;SDS011;886;50.082;8.222;2022-12-29T09:14:26;3.30;;;3.00;;
1777;SDS011;886;50.082;8.222;2022-12-29T09:16:53;3.23;;;3.03;;
1777;SDS011;886;50.082;8.222;2022-12-29T09:19:41;3.43;;;3.13;;
1777;SDS011;886;50.082;8.222;2022-12-29T09:22:08;4.50;;;3.10;;
1777;SDS011;886;50.082;8.222;2022-12-29T09:24:44;3.33;;;3.13;;
1777;SDS011;886;50.082;8.222;2022-12-29T09:27:11;3.40;;;3.10;;
1777;SDS011;886;50.082;8.222;2022-12-29T09:29:41;7.03;;;3.10;;
1777;SDS011;886;50.082;8.222;2022-12-29T09:32:09;6.33;;;2.77;;
1777;SDS011;886;50.082;8.222;2022-12-29T09:34:45;3.40;;;3.10;;
1777;SDS011;886;50.082;8.222;2022-12-29T09:37:18;3.20;;;3.00;;
1777;SDS011;886;50.082;8.222;2022-12-29T09:39:49;5.00;;;4.07;;
1777;SDS011;886;50.082;8.222;2022-12-29T09:42:22;3.57;;;3.27;;
1777;SDS011;886;50.082;8.222;2022-12-29T09:44:56;3.30;;;2.90;;
1777;SDS011;886;50.082;8.222;2022-12-29T09:47:44;3.20;;;2.87;;
1777;SDS011;886;50.082;8.222;2022-12-29T09:50:16;2.73;;;2.50;;
1777;SDS011;886;50.082;8.222;2022-12-29T09:52:52;4.33;;;3.13;;
1777;SDS011;886;50.082;8.222;2022-12-29T09:55:34;6.20;;;2.90;;
1777;SDS011;886;50.082;8.222;2022-12-29T09:58:10;2.87;;;2.67;;
1777;SDS011;886;50.082;8.222;2022-12-29T10:00:46;2.40;;;2.20;;
1777;SDS011;886;50.082;8.222;2022-12-29T10:03:24;2.47;;;2.30;;
1777;SDS011;886;50.082;8.222;2022-12-29T10:06:06;4.80;;;2.97;;
1777;SDS011;886;50.082;8.222;2022-12-29T10:08:39;2.77;;;2.10;;
1777;SDS011;886;50.082;8.222;2022-12-29T10:11:14;4.90;;;2.00;;
1777;SDS011;886;50.082;8.222;2022-12-29T10:13:59;2.10;;;2.00;;
1777;SDS011;886;50.082;8.222;2022-12-29T10:16:45;2.20;;;2.00;;
1777;SDS011;886;50.082;8.222;2022-12-29T10:19:26;2.20;;;2.10;;
1777;SDS011;886;50.082;8.222;2022-12-29T10:22:19;5.13;;;2.00;;
1777;SDS011;886;50.082;8.222;2022-12-29T10:25:01;2.23;;;2.03;;
1777;SDS011;886;50.082;8.222;2022-12-29T10:27:37;3.30;;;1.63;;
1777;SDS011;886;50.082;8.222;2022-12-29T10:30:05;1.90;;;1.80;;
1777;SDS011;886;50.082;8.222;2022-12-29T10:32:39;2.27;;;1.47;;
1777;SDS011;886;50.082;8.222;2022-12-29T10:35:12;1.80;;;1.70;;
1777;SDS011;886;50.082;8.222;2022-12-29T10:37:45;2.10;;;1.40;;
1777;SDS011;886;50.082;8.222;2022-12-29T10:40:18;1.60;;;1.50;;
1777;SDS011;886;50.082;8.222;2022-12-29T10:42:54;1.40;;;1.27;;
1777;SDS011;886;50.082;8.222;2022-12-29T10:45:26;1.20;;;1.10;;
1777;SDS011;886;50.082;8.222;2022-12-29T10:47:57;4.03;;;1.33;;
1777;SDS011;886;50.082;8.222;2022-12-29T10:50:29;2.00;;;1.10;;
1777;SDS011;886;50.082;8.222;2022-12-29T10:52:58;1.40;;;1.30;;
1777;SDS011;886;50.082;8.222;2022-12-29T10:55:30;2.47;;;1.03;;
1777;SDS011;886;50.082;8.222;2022-12-29T10:58:02;0.90;;;0.80;;
1777;SDS011;886;50.082;8.222;2022-12-29T11:00:34;3.13;;;1.20;;
1777;SDS011;886;50.082;8.222;2022-12-29T11:06:02;0.97;;;0.87;;
1777;SDS011;886;50.082;8.222;2022-12-29T11:08:38;1.10;;;1.00;;
1777;SDS011;886;50.082;8.222;2022-12-29T11:11:23;1.00;;;0.90;;
1777;SDS011;886;50.082;8.222;2022-12-29T11:13:57;2.63;;;1.00;;
1777;SDS011;886;50.082;8.222;2022-12-29T11:16:32;1.60;;;1.30;;
1777;SDS011;886;50.082;8.222;2022-12-29T11:19:01;1.30;;;1.20;;
1777;SDS011;886;50.082;8.222;2022-12-29T11:21:33;1.40;;;1.00;;
1777;SDS011;886;50.082;8.222;2022-12-29T11:24:19;3.20;;;1.20;;
1777;SDS011;886;50.082;8.222;2022-12-29T11:26:52;1.80;;;1.00;;
1777;SDS011;886;50.082;8.222;2022-12-29T11:29:26;2.73;;;1.10;;
1777;SDS011;886;50.082;8.222;2022-12-29T11:31:55;1.07;;;0.90;;
1777;SDS011;886;50.082;8.222;2022-12-29T11:34:25;1.50;;;0.80;;
1777;SDS011;886;50.082;8.222;2022-12-29T11:37:00;1.93;;;0.97;;
1777;SDS011;886;50.082;8.222;2022-12-29T11:39:33;1.33;;;0.90;;
1777;SDS011;886;50.082;8.222;2022-12-29T11:42:05;1.53;;;1.00;;
1777;SDS011;886;50.082;8.222;2022-12-29T11:44:42;2.30;;;0.90;;
1777;SDS011;886;50.082;8.222;2022-12-29T11:47:13;2.17;;;1.00;;
1777;SDS011;886;50.082;8.222;2022-12-29T11:49:54;3.47;;;1.20;;
1777;SDS011;886;50.082;8.222;2022-12-29T11:52:25;2.20;;;1.23;;
1777;SDS011;886;50.082;8.222;2022-12-29T11:55:01;3.10;;;1.10;;
1777;SDS011;886;50.082;8.222;2022-12-29T11:57:32;1.07;;;0.97;;
1777;SDS011;886;50.082;8.222;2022-12-29T12:00:01;2.77;;;1.07;;
1777;SDS011;886;50.082;8.222;2022-12-29T12:02:34;3.20;;;1.50;;
1777;SDS011;886;50.082;8.222;2022-12-29T12:05:13;1.10;;;0.93;;
1777;SDS011;886;50.082;8.222;2022-12-29T12:08:02;1.73;;;1.27;;
1777;SDS011;886;50.082;8.222;2022-12-29T12:10:44;2.90;;;1.10;;
1777;SDS011;886;50.082;8.222;2022-12-29T12:13:20;2.87;;;1.03;;
1777;SDS011;886;50.082;8.222;2022-12-29T12:16:02;3.03;;;1.27;;
1777;SDS011;886;50.082;8.222;2022-12-29T12:18:44;1.00;;;0.87;;
1777;SDS011;886;50.082;8.222;2022-12-29T12:21:27;2.80;;;0.90;;
1777;SDS011;886;50.082;8.222;2022-12-29T12:24:12;1.63;;;0.90;;
1777;SDS011;886;50.082;8.222;2022-12-29T12:27:04;2.50;;;1.40;;
1777;SDS011;886;50.082;8.222;2022-12-29T12:29:43;1.30;;;1.10;;
1777;SDS011;886;50.082;8.222;2022-12-29T12:32:24;3.53;;;1.57;;
1777;SDS011;886;50.082;8.222;2022-12-29T12:35:10;1.50;;;1.20;;
1777;SDS011;886;50.082;8.222;2022-12-29T12:37:50;2.10;;;1.80;;
1777;SDS011;886;50.082;8.222;2022-12-29T12:40:56;1.83;;;1.00;;
1777;SDS011;886;50.082;8.222;2022-12-29T12:43:44;1.67;;;1.13;;
1777;SDS011;886;50.082;8.222;2022-12-29T12:46:39;3.00;;;1.20;;
1777;SDS011;886;50.082;8.222;2022-12-29T12:52:53;1.13;;;1.03;;
1777;SDS011;886;50.082;8.222;2022-12-29T12:55:48;1.77;;;1.30;;
1777;SDS011;886;50.082;8.222;2022-12-29T12:58:27;2.67;;;1.03;;
1777;SDS011;886;50.082;8.222;2022-12-29T13:01:10;1.73;;;1.03;;
1777;SDS011;886;50.082;8.222;2022-12-29T13:03:50;2.23;;;1.13;;
1777;SDS011;886;50.082;8.222;2022-12-29T13:06:47;6.20;;;1.13;;
1777;SDS011;886;50.082;8.222;2022-12-29T13:09:31;1.70;;;1.20;;
1777;SDS011;886;50.082;8.222;2022-12-29T13:12:29;4.73;;;1.20;;
1777;SDS011;886;50.082;8.222;2022-12-29T13:15:16;1.20;;;0.97;;
1777;SDS011;886;50.082;8.222;2022-12-29T13:18:01;1.90;;;1.40;;
1777;SDS011;886;50.082;8.222;2022-12-29T13:20:43;3.33;;;1.50;;
1777;SDS011;886;50.082;8.222;2022-12-29T13:23:17;1.60;;;1.10;;
1777;SDS011;886;50.082;8.222;2022-12-29T13:26:01;1.10;;;1.00;;
1777;SDS011;886;50.082;8.222;2022-12-29T13:28:44;3.10;;;1.33;;
1777;SDS011;886;50.082;8.222;2022-12-29T13:31:33;1.73;;;1.17;;
1777;SDS011;886;50.082;8.222;2022-12-29T13:34:13;4.30;;;1.13;;
1777;SDS011;886;50.082;8.222;2022-12-29T13:36:51;1.83;;;0.90;;
1777;SDS011;886;50.082;8.222;2022-12-29T13:39:21;2.80;;;1.40;;
1777;SDS011;886;50.082;8.222;2022-12-29T13:41:53;3.30;;;1.20;;
1777;SDS011;886;50.082;8.222;2022-12-29T13:44:23;5.63;;;1.17;;
1777;SDS011;886;50.082;8.222;2022-12-29T13:47:02;4.00;;;1.43;;
1777;SDS011;886;50.082;8.222;2022-12-29T13:49:43;2.00;;;1.10;;
1777;SDS011;886;50.082;8.222;2022-12-29T13:52:13;2.07;;;1.50;;
1777;SDS011;886;50.082;8.222;2022-12-29T13:54:53;3.33;;;1.40;;
1777;SDS011;886;50.082;8.222;2022-12-29T13:57:31;3.40;;;1.30;;
1777;SDS011;886;50.082;8.222;2022-12-29T14:00:14;2.40;;;1.27;;
1777;SDS011;886;50.082;8.222;2022-12-29T14:02:49;1.80;;;1.57;;
1777;SDS011;886;50.082;8.222;2022-12-29T14:05:43;2.20;;;1.50;;
1777;SDS011;886;50.082;8.222;2022-12-29T14:08:30;1.77;;;1.10;;
1777;SDS011;886;50.082;8.222;2022-12-29T14:11:06;1.77;;;1.30;;
1777;SDS011;886;50.082;8.222;2022-12-29T14:13:41;1.40;;;1.23;;
1777;SDS011;886;50.082;8.222;2022-12-29T14:16:23;3.23;;;1.10;;
1777;SDS011;886;50.082;8.222;2022-12-29T14:19:03;2.30;;;1.10;;
1777;SDS011;886;50.082;8.222;2022-12-29T14:21:39;3.50;;;1.30;;
1777;SDS011;886;50.082;8.222;2022-12-29T14:30:48;1.50;;;1.20;;
1777;SDS011;886;50.082;8.222;2022-12-29T14:33:18;3.33;;;1.40;;
1777;SDS011;886;50.082;8.222;2022-12-29T14:35:47;2.40;;;1.30;;
1777;SDS011;886;50.082;8.222;2022-12-29T14:38:21;5.80;;;1.77;;
1777;SDS011;886;50.082;8.222;2022-12-29T14:40:51;1.77;;;1.07;;
1777;SDS011;886;50.082;8.222;2022-12-29T14:43:26;2.27;;;1.17;;
1777;SDS011;886;50.082;8.222;2022-12-29T14:45:58;1.17;;;0.90;;
1777;SDS011;886;50.082;8.222;2022-12-29T14:48:33;4.33;;;1.00;;
1777;SDS011;886;50.082;8.222;2022-12-29T14:51:21;2.23;;;1.40;;
1777;SDS011;886;50.082;8.222;2022-12-29T14:54:00;3.77;;;1.30;;
1777;SDS011;886;50.082;8.222;2022-12-29T14:57:13;1.70;;;1.30;;
1777;SDS011;886;50.082;8.222;2022-12-29T14:59:53;1.73;;;1.30;;
1777;SDS011;886;50.082;8.222;2022-12-29T15:02:31;5.00;;;1.40;;
1777;SDS011;886;50.082;8.222;2022-12-29T15:05:19;4.20;;;1.40;;
1777;SDS011;886;50.082;8.222;2022-12-29T15:08:00;1.37;;;1.17;;
1777;SDS011;886;50.082;8.222;2022-12-29T15:10:34;3.60;;;1.77;;
1777;SDS011;886;50.082;8.222;2022-12-29T15:13:13;1.50;;;1.30;;
1777;SDS011;886;50.082;8.222;2022-12-29T15:15:44;2.63;;;1.30;;
1777;SDS011;886;50.082;8.222;2022-12-29T15:18:20;1.67;;;1.20;;
1777;SDS011;886;50.082;8.222;2022-12-29T15:20:57;2.30;;;1.47;;
1777;SDS011;886;50.082;8.222;2022-12-29T15:23:27;2.90;;;1.30;;
1777;SDS011;886;50.082;8.222;2022-12-29T15:26:04;2.90;;;1.00;;
1777;SDS011;886;50.082;8.222;2022-12-29T15:28:37;2.03;;;1.70;;
1777;SDS011;886;50.082;8.222;2022-12-29T15:31:10;2.27;;;1.30;;
1777;SDS011;886;50.082;8.222;2022-12-29T15:33:41;3.97;;;1.43;;
1777;SDS011;886;50.082;8.222;2022-12-29T15:36:11;5.77;;;1.37;;
1777;SDS011;886;50.082;8.222;2022-12-29T15:38:43;2.70;;;1.53;;
1777;SDS011;886;50.082;8.222;2022-12-29T15:41:24;2.60;;;1.30;;
1777;SDS011;886;50.082;8.222;2022-12-29T15:44:00;4.60;;;1.43;;
1777;SDS011;886;50.082;8.222;2022-12-29T15:46:36;3.47;;;1.27;;
1777;SDS011;886;50.082;8.222;2022-12-29T15:49:05;3.03;;;1.40;;
1777;SDS011;886;50.082;8.222;2022-12-29T15:51:35;1.87;;;1.40;;
1777;SDS011;886;50.082;8.222;2022-12-29T15:54:12;3.23;;;1.60;;
1777;SDS011;886;50.082;8.222;2022-12-29T15:56:45;3.47;;;1.33;;
1777;SDS011;886;50.082;8.222;2022-12-29T15:59:24;2.10;;;1.67;;
1777;SDS011;886;50.082;8.222;2022-12-29T16:02:00;2.33;;;1.40;;
1777;SDS011;886;50.082;8.222;2022-12-29T16:04:37;1.50;;;1.40;;
1777;SDS011;886;50.082;8.222;2022-12-29T16:07:26;2.27;;;1.47;;
1777;SDS011;886;50.082;8.222;2022-12-29T16:10:02;2.90;;;1.43;;
1777;SDS011;886;50.082;8.222;2022-12-29T16:12:33;1.93;;;1.63;;
1777;SDS011;886;50.082;8.222;2022-12-29T16:15:03;4.80;;;3.70;;
1777;SDS011;886;50.082;8.222;2022-12-29T16:17:42;4.43;;;3.27;;
1777;SDS011;886;50.082;8.222;2022-12-29T16:20:15;2.53;;;1.53;;
1777;SDS011;886;50.082;8.222;2022-12-29T16:22:55;5.13;;;2.63;;
1777;SDS011;886;50.082;8.222;2022-12-29T16:25:34;4.63;;;2.77;;
1777;SDS011;886;50.082;8.222;2022-12-29T16:28:18;6.20;;;3.47;;
1777;SDS011;886;50.082;8.222;2022-12-29T16:30:57;6.43;;;3.93;;